Historique des mesures à Cassis (13260), France
Quotidien Résumé Aout 1, 2017 Unités:  Métrique    US   Métrique/US
« Précédent (Jour)
Suivant (Jour) »
Quotidien Hebdomadaire Mensuel Annuel Période au choix
  Maximum: Minimum: Moyenne:
Température: TemperatureC °C 28.3 °C 30.1 °C
Point de rosée: DewpointC °C 12.9 °C 15.8 °C
Humidité: Humidity % 32 % 40 %
Vitesse du vent: 0 km/h 0 km/h 6.1 km/h
Rafales: 0 km/h - -
Vent:- - SE
Pression: PressurehPa hPa 1009.0 hPa -
Précipitations: 0.0 mm    
Historical Graphs
 
 
Mesures pour : Aout 1, 2017
Heure Temperature Point de rosée Pression Vent Vitesse du vent Rafales Humidité Pluie (par heure) Conditions
TemperatureC °C DewpointC °C PressurehPa hPa Calm     Humidity % HourlyPrecipMM mm SoftwareType W/m2
00:11 30.6 °C 12.9 °C 1009.7 hPa ESE 9.8 km/h 9.8 km/h 34 % 0.0 mm open2300-1.11 W/m2
01:11 30.0 °C 13.7 °C 1009.7 hPa ESE 5.6 km/h 8 km/h 37 % 0.0 mm open2300-1.11 W/m2
02:11 29.2 °C 13.8 °C 1009.7 hPa SE 7.6 km/h 7.6 km/h 39 % 0.0 mm open2300-1.11 W/m2
03:11 29.5 °C 14.1 °C 1009.7 hPa ESE 9.3 km/h 14 km/h 39 % 0.0 mm open2300-1.11 W/m2
04:11 29.4 °C 14.0 °C 1009.4 hPa SE 5.6 km/h 12.7 km/h 39 % 0.0 mm open2300-1.11 W/m2
05:11 29.3 °C 14.4 °C 1009.0 hPa SE 15 km/h 19.6 km/h 40 % 0.0 mm open2300-1.11 W/m2
06:11 29.3 °C 14.4 °C 1009.4 hPa SE 8 km/h 16.3 km/h 40 % 0.0 mm open2300-1.11 W/m2
07:11 29.2 °C 14.6 °C 1009.7 hPa SE 5.6 km/h 12.2 km/h 41 % 0.0 mm open2300-1.11 W/m2
08:11 30.8 °C 15.7 °C 1009.4 hPa ESE 8 km/h 8 km/h 40 % 0.0 mm open2300-1.11 W/m2
09:11 31.2 °C 16.4 °C 1009.7 hPa SSE 14 km/h 14 km/h 41 % 0.0 mm open2300-1.11 W/m2
10:11 31.9 °C 17.3 °C 1010.7 hPa Calm   15.6 km/h 42 % 0.0 mm open2300-1.11 W/m2
11:11 33.6 °C 18.8 °C 1010.7 hPa ENE 4.2 km/h 9.3 km/h 42 % 0.0 mm open2300-1.11 W/m2
12:11 34.5 °C 18.9 °C 1010.7 hPa SSE 5.6 km/h 12.7 km/h 40 % 0.0 mm open2300-1.11 W/m2
13:11 35.9 °C 18.4 °C 1010.7 hPa SSE 4.7 km/h 6.9 km/h 36 % 0.0 mm open2300-1.11 W/m2
14:11 34.6 °C 16.8 °C 1011.1 hPa Calm   5.6 km/h 35 % 0.0 mm open2300-1.11 W/m2
15:11 34.8 °C 16.1 °C 1011.1 hPa SSE 11.6 km/h 16.3 km/h 33 % 0.0 mm open2300-1.11 W/m2
16:11 35.4 °C 16.1 °C 1011.7 hPa West 9.8 km/h 14 km/h 32 % 0.0 mm open2300-1.11 W/m2
17:11 34.6 °C 16.3 °C 1011.7 hPa SW 5.6 km/h 5.6 km/h 34 % 0.0 mm open2300-1.11 W/m2
18:11 32.6 °C 15.9 °C 1012.4 hPa South 8 km/h 8 km/h 37 % 0.0 mm open2300-1.11 W/m2
19:11 30.8 °C 19.5 °C 1014.1 hPa SSW 6.9 km/h 6.9 km/h 51 % 0.0 mm open2300-1.11 W/m2
20:11 29.3 °C 19.9 °C 1014.8 hPa Calm     57 % 0.0 mm open2300-1.11 W/m2
21:11 28.4 °C 19.0 °C 1012.4 hPa ENE 5.1 km/h 7.6 km/h 57 % 0.0 mm open2300-1.11 W/m2
22:11 28.4 °C 18.2 °C 1012.4 hPa North 2.3 km/h 4.2 km/h 54 % 0.0 mm open2300-1.11 W/m2
23:11 28.3 °C 18.7 °C 1012.4 hPa Calm     56 % 0.0 mm open2300-1.11 W/m2
Observations météo à CASSIS
WU-History script by Weather Underground - 1 mb